sensor_id;sensor_type;location;lat;lon;timestamp;P1;durP1;ratioP1;P2;durP2;ratioP2
55455;SDS011;63021;52.836;6.376;2022-10-16T00:01:46;3.22;;;1.63;;
55455;SDS011;63021;52.836;6.376;2022-10-16T00:04:11;7.80;;;2.80;;
55455;SDS011;63021;52.836;6.376;2022-10-16T00:06:42;4.80;;;1.85;;
55455;SDS011;63021;52.836;6.376;2022-10-16T00:09:09;6.25;;;1.73;;
55455;SDS011;63021;52.836;6.376;2022-10-16T00:11:35;7.68;;;1.85;;
55455;SDS011;63021;52.836;6.376;2022-10-16T00:14:03;6.75;;;1.63;;
55455;SDS011;63021;52.836;6.376;2022-10-16T00:16:37;7.53;;;2.75;;
55455;SDS011;63021;52.836;6.376;2022-10-16T00:19:04;4.97;;;2.80;;
55455;SDS011;63021;52.836;6.376;2022-10-16T00:21:29;2.58;;;1.45;;
55455;SDS011;63021;52.836;6.376;2022-10-16T00:23:58;7.68;;;3.05;;
55455;SDS011;63021;52.836;6.376;2022-10-16T00:26:26;4.90;;;2.25;;
55455;SDS011;63021;52.836;6.376;2022-10-16T00:28:54;5.28;;;1.60;;
55455;SDS011;63021;52.836;6.376;2022-10-16T00:31:20;7.13;;;2.17;;
55455;SDS011;63021;52.836;6.376;2022-10-16T00:33:47;10.93;;;3.17;;
55455;SDS011;63021;52.836;6.376;2022-10-16T00:36:14;7.22;;;2.13;;
55455;SDS011;63021;52.836;6.376;2022-10-16T00:38:41;4.88;;;2.00;;
55455;SDS011;63021;52.836;6.376;2022-10-16T00:41:07;6.63;;;1.83;;
55455;SDS011;63021;52.836;6.376;2022-10-16T00:48:45;2.47;;;1.50;;
55455;SDS011;63021;52.836;6.376;2022-10-16T00:51:15;4.47;;;1.70;;
55455;SDS011;63021;52.836;6.376;2022-10-16T00:53:44;3.97;;;1.73;;
55455;SDS011;63021;52.836;6.376;2022-10-16T00:56:09;9.77;;;1.67;;
55455;SDS011;63021;52.836;6.376;2022-10-16T00:58:39;5.10;;;1.80;;
55455;SDS011;63021;52.836;6.376;2022-10-16T01:01:04;2.45;;;1.60;;
55455;SDS011;63021;52.836;6.376;2022-10-16T01:03:31;5.18;;;2.25;;
55455;SDS011;63021;52.836;6.376;2022-10-16T01:06:02;6.75;;;1.95;;
55455;SDS011;63021;52.836;6.376;2022-10-16T01:11:53;7.35;;;1.70;;
55455;SDS011;63021;52.836;6.376;2022-10-16T01:14:27;2.72;;;1.48;;
55455;SDS011;63021;52.836;6.376;2022-10-16T01:17:11;7.28;;;2.75;;
55455;SDS011;63021;52.836;6.376;2022-10-16T01:28:38;6.57;;;1.95;;
55455;SDS011;63021;52.836;6.376;2022-10-16T01:31:14;2.00;;;1.80;;
55455;SDS011;63021;52.836;6.376;2022-10-16T01:33:44;3.03;;;1.75;;
55455;SDS011;63021;52.836;6.376;2022-10-16T01:36:13;5.65;;;1.90;;
55455;SDS011;63021;52.836;6.376;2022-10-16T01:38:43;7.40;;;1.83;;
55455;SDS011;63021;52.836;6.376;2022-10-16T01:41:13;5.03;;;1.48;;
55455;SDS011;63021;52.836;6.376;2022-10-16T01:43:45;2.53;;;1.48;;
55455;SDS011;63021;52.836;6.376;2022-10-16T01:46:16;4.95;;;1.67;;
55455;SDS011;63021;52.836;6.376;2022-10-16T01:48:43;5.57;;;1.58;;
55455;SDS011;63021;52.836;6.376;2022-10-16T01:51:10;4.65;;;1.50;;
55455;SDS011;63021;52.836;6.376;2022-10-16T01:53:39;7.03;;;2.47;;
55455;SDS011;63021;52.836;6.376;2022-10-16T01:56:08;4.47;;;1.98;;
55455;SDS011;63021;52.836;6.376;2022-10-16T01:58:41;5.18;;;1.63;;
55455;SDS011;63021;52.836;6.376;2022-10-16T02:01:10;9.73;;;2.22;;
55455;SDS011;63021;52.836;6.376;2022-10-16T02:03:40;6.47;;;2.13;;
55455;SDS011;63021;52.836;6.376;2022-10-16T02:06:07;5.20;;;1.92;;
55455;SDS011;63021;52.836;6.376;2022-10-16T02:08:33;5.00;;;1.70;;
55455;SDS011;63021;52.836;6.376;2022-10-16T02:11:00;3.50;;;1.67;;
55455;SDS011;63021;52.836;6.376;2022-10-16T02:13:37;3.08;;;1.77;;
55455;SDS011;63021;52.836;6.376;2022-10-16T02:16:08;10.77;;;1.83;;
55455;SDS011;63021;52.836;6.376;2022-10-16T02:18:35;4.18;;;2.13;;
55455;SDS011;63021;52.836;6.376;2022-10-16T02:21:02;3.65;;;2.05;;
55455;SDS011;63021;52.836;6.376;2022-10-16T02:23:45;5.55;;;2.17;;
55455;SDS011;63021;52.836;6.376;2022-10-16T02:26:19;4.20;;;2.50;;
55455;SDS011;63021;52.836;6.376;2022-10-16T02:28:55;5.25;;;1.80;;
55455;SDS011;63021;52.836;6.376;2022-10-16T02:31:27;6.22;;;2.10;;
55455;SDS011;63021;52.836;6.376;2022-10-16T02:33:56;3.90;;;1.50;;
55455;SDS011;63021;52.836;6.376;2022-10-16T02:36:24;4.00;;;1.95;;
55455;SDS011;63021;52.836;6.376;2022-10-16T02:38:51;4.68;;;2.15;;
55455;SDS011;63021;52.836;6.376;2022-10-16T02:41:17;11.65;;;2.05;;
55455;SDS011;63021;52.836;6.376;2022-10-16T02:43:43;3.35;;;1.85;;
55455;SDS011;63021;52.836;6.376;2022-10-16T02:46:09;6.55;;;2.15;;
55455;SDS011;63021;52.836;6.376;2022-10-16T02:48:35;3.10;;;2.20;;
55455;SDS011;63021;52.836;6.376;2022-10-16T02:51:00;4.85;;;2.22;;
55455;SDS011;63021;52.836;6.376;2022-10-16T02:53:26;4.35;;;1.92;;
55455;SDS011;63021;52.836;6.376;2022-10-16T02:55:51;3.47;;;2.00;;
55455;SDS011;63021;52.836;6.376;2022-10-16T02:58:18;3.13;;;2.35;;
55455;SDS011;63021;52.836;6.376;2022-10-16T03:00:44;7.82;;;2.35;;
55455;SDS011;63021;52.836;6.376;2022-10-16T03:05:38;5.30;;;2.42;;
55455;SDS011;63021;52.836;6.376;2022-10-16T03:08:03;5.35;;;1.63;;
55455;SDS011;63021;52.836;6.376;2022-10-16T03:10:30;1.98;;;1.60;;
55455;SDS011;63021;52.836;6.376;2022-10-16T03:12:55;3.28;;;2.28;;
55455;SDS011;63021;52.836;6.376;2022-10-16T03:15:22;3.65;;;2.00;;
55455;SDS011;63021;52.836;6.376;2022-10-16T03:17:48;6.47;;;2.30;;
55455;SDS011;63021;52.836;6.376;2022-10-16T03:20:13;3.47;;;1.80;;
55455;SDS011;63021;52.836;6.376;2022-10-16T03:22:39;2.00;;;1.73;;
55455;SDS011;63021;52.836;6.376;2022-10-16T03:25:05;4.68;;;2.17;;
55455;SDS011;63021;52.836;6.376;2022-10-16T03:27:31;5.25;;;2.00;;
55455;SDS011;63021;52.836;6.376;2022-10-16T03:29:56;5.07;;;2.90;;
55455;SDS011;63021;52.836;6.376;2022-10-16T03:32:22;3.63;;;1.88;;
55455;SDS011;63021;52.836;6.376;2022-10-16T03:34:47;4.80;;;1.88;;
55455;SDS011;63021;52.836;6.376;2022-10-16T03:37:13;1.65;;;1.50;;
55455;SDS011;63021;52.836;6.376;2022-10-16T03:39:38;10.07;;;2.83;;
55455;SDS011;63021;52.836;6.376;2022-10-16T03:42:03;5.30;;;2.10;;
55455;SDS011;63021;52.836;6.376;2022-10-16T03:44:29;2.40;;;1.70;;
55455;SDS011;63021;52.836;6.376;2022-10-16T03:46:55;4.82;;;1.90;;
55455;SDS011;63021;52.836;6.376;2022-10-16T03:49:20;4.63;;;1.70;;
55455;SDS011;63021;52.836;6.376;2022-10-16T03:51:45;3.88;;;2.30;;
55455;SDS011;63021;52.836;6.376;2022-10-16T03:54:11;5.18;;;2.00;;
55455;SDS011;63021;52.836;6.376;2022-10-16T03:59:05;3.83;;;2.33;;
55455;SDS011;63021;52.836;6.376;2022-10-16T04:01:30;1.92;;;1.83;;
55455;SDS011;63021;52.836;6.376;2022-10-16T04:03:56;2.78;;;2.03;;
55455;SDS011;63021;52.836;6.376;2022-10-16T04:06:21;2.80;;;2.10;;
55455;SDS011;63021;52.836;6.376;2022-10-16T04:08:46;4.20;;;3.67;;
55455;SDS011;63021;52.836;6.376;2022-10-16T04:11:12;5.32;;;2.28;;
55455;SDS011;63021;52.836;6.376;2022-10-16T04:13:37;3.90;;;2.00;;
55455;SDS011;63021;52.836;6.376;2022-10-16T04:16:03;6.78;;;2.30;;
55455;SDS011;63021;52.836;6.376;2022-10-16T04:18:28;3.60;;;2.17;;
55455;SDS011;63021;52.836;6.376;2022-10-16T04:20:54;6.03;;;2.20;;
55455;SDS011;63021;52.836;6.376;2022-10-16T04:23:19;2.70;;;2.30;;
55455;SDS011;63021;52.836;6.376;2022-10-16T04:25:45;3.45;;;2.25;;
55455;SDS011;63021;52.836;6.376;2022-10-16T04:28:10;3.47;;;2.03;;
55455;SDS011;63021;52.836;6.376;2022-10-16T04:30:37;5.63;;;2.42;;
55455;SDS011;63021;52.836;6.376;2022-10-16T04:33:03;5.13;;;2.40;;
55455;SDS011;63021;52.836;6.376;2022-10-16T04:35:29;4.60;;;2.35;;
55455;SDS011;63021;52.836;6.376;2022-10-16T04:37:56;3.60;;;2.55;;
55455;SDS011;63021;52.836;6.376;2022-10-16T04:40:22;2.50;;;2.30;;
55455;SDS011;63021;52.836;6.376;2022-10-16T04:42:48;3.88;;;2.45;;
55455;SDS011;63021;52.836;6.376;2022-10-16T04:45:13;7.25;;;2.50;;
55455;SDS011;63021;52.836;6.376;2022-10-16T04:47:38;3.00;;;2.33;;
55455;SDS011;63021;52.836;6.376;2022-10-16T04:50:04;3.20;;;2.90;;
55455;SDS011;63021;52.836;6.376;2022-10-16T04:52:30;4.57;;;3.03;;
55455;SDS011;63021;52.836;6.376;2022-10-16T04:54:56;5.70;;;2.45;;
55455;SDS011;63021;52.836;6.376;2022-10-16T04:57:25;4.07;;;2.50;;
55455;SDS011;63021;52.836;6.376;2022-10-16T04:59:51;6.00;;;2.80;;
55455;SDS011;63021;52.836;6.376;2022-10-16T05:02:17;2.75;;;2.50;;
55455;SDS011;63021;52.836;6.376;2022-10-16T05:04:42;4.32;;;2.78;;
55455;SDS011;63021;52.836;6.376;2022-10-16T05:07:08;3.60;;;2.72;;
55455;SDS011;63021;52.836;6.376;2022-10-16T05:09:34;5.00;;;2.97;;
55455;SDS011;63021;52.836;6.376;2022-10-16T05:11:59;5.43;;;3.17;;
55455;SDS011;63021;52.836;6.376;2022-10-16T05:14:25;4.50;;;2.80;;
55455;SDS011;63021;52.836;6.376;2022-10-16T05:16:50;5.05;;;2.35;;
55455;SDS011;63021;52.836;6.376;2022-10-16T05:19:16;5.60;;;2.83;;
55455;SDS011;63021;52.836;6.376;2022-10-16T05:21:42;4.70;;;2.75;;
55455;SDS011;63021;52.836;6.376;2022-10-16T05:24:07;5.70;;;2.72;;
55455;SDS011;63021;52.836;6.376;2022-10-16T05:26:34;3.83;;;3.15;;
55455;SDS011;63021;52.836;6.376;2022-10-16T05:28:59;5.43;;;2.83;;
55455;SDS011;63021;52.836;6.376;2022-10-16T05:31:25;5.15;;;2.65;;
55455;SDS011;63021;52.836;6.376;2022-10-16T05:33:50;4.93;;;2.80;;
55455;SDS011;63021;52.836;6.376;2022-10-16T05:36:15;4.57;;;2.95;;
55455;SDS011;63021;52.836;6.376;2022-10-16T05:38:43;3.90;;;2.45;;
55455;SDS011;63021;52.836;6.376;2022-10-16T05:41:08;8.57;;;3.25;;
55455;SDS011;63021;52.836;6.376;2022-10-16T05:43:34;8.32;;;3.72;;
55455;SDS011;63021;52.836;6.376;2022-10-16T05:46:00;6.18;;;2.97;;
55455;SDS011;63021;52.836;6.376;2022-10-16T05:48:27;4.80;;;2.85;;
55455;SDS011;63021;52.836;6.376;2022-10-16T05:50:56;2.92;;;2.47;;
55455;SDS011;63021;52.836;6.376;2022-10-16T05:53:30;3.53;;;2.58;;
55455;SDS011;63021;52.836;6.376;2022-10-16T05:55:57;5.35;;;3.13;;
55455;SDS011;63021;52.836;6.376;2022-10-16T05:58:24;4.88;;;3.08;;
55455;SDS011;63021;52.836;6.376;2022-10-16T06:00:56;7.15;;;2.40;;
55455;SDS011;63021;52.836;6.376;2022-10-16T06:03:23;5.55;;;2.80;;
55455;SDS011;63021;52.836;6.376;2022-10-16T06:05:49;2.72;;;2.47;;
55455;SDS011;63021;52.836;6.376;2022-10-16T06:08:14;4.43;;;2.53;;
55455;SDS011;63021;52.836;6.376;2022-10-16T06:10:40;4.93;;;3.33;;
55455;SDS011;63021;52.836;6.376;2022-10-16T06:13:05;4.07;;;2.42;;
55455;SDS011;63021;52.836;6.376;2022-10-16T06:15:31;2.40;;;2.20;;
55455;SDS011;63021;52.836;6.376;2022-10-16T06:17:56;4.82;;;2.63;;
55455;SDS011;63021;52.836;6.376;2022-10-16T06:20:21;4.32;;;2.55;;
55455;SDS011;63021;52.836;6.376;2022-10-16T06:22:47;4.22;;;2.88;;
55455;SDS011;63021;52.836;6.376;2022-10-16T06:25:12;4.15;;;2.17;;
55455;SDS011;63021;52.836;6.376;2022-10-16T06:27:40;2.83;;;2.08;;
55455;SDS011;63021;52.836;6.376;2022-10-16T06:30:06;4.32;;;2.28;;
55455;SDS011;63021;52.836;6.376;2022-10-16T06:32:32;5.03;;;2.33;;
55455;SDS011;63021;52.836;6.376;2022-10-16T06:34:58;3.33;;;2.50;;
55455;SDS011;63021;52.836;6.376;2022-10-16T06:37:23;5.45;;;2.53;;
55455;SDS011;63021;52.836;6.376;2022-10-16T06:39:49;6.07;;;2.33;;
55455;SDS011;63021;52.836;6.376;2022-10-16T06:42:17;3.75;;;2.28;;
55455;SDS011;63021;52.836;6.376;2022-10-16T06:44:42;5.43;;;2.65;;
55455;SDS011;63021;52.836;6.376;2022-10-16T06:47:07;4.22;;;2.63;;
55455;SDS011;63021;52.836;6.376;2022-10-16T06:49:33;2.97;;;2.42;;
55455;SDS011;63021;52.836;6.376;2022-10-16T06:51:58;4.43;;;2.60;;
55455;SDS011;63021;52.836;6.376;2022-10-16T06:54:23;3.03;;;2.08;;
55455;SDS011;63021;52.836;6.376;2022-10-16T06:56:49;3.97;;;2.17;;
55455;SDS011;63021;52.836;6.376;2022-10-16T06:59:16;6.13;;;3.35;;
55455;SDS011;63021;52.836;6.376;2022-10-16T07:01:41;7.43;;;2.50;;
55455;SDS011;63021;52.836;6.376;2022-10-16T07:04:06;5.22;;;2.63;;
55455;SDS011;63021;52.836;6.376;2022-10-16T07:06:33;3.58;;;1.95;;
55455;SDS011;63021;52.836;6.376;2022-10-16T07:09:00;4.85;;;2.30;;
55455;SDS011;63021;52.836;6.376;2022-10-16T07:11:27;6.55;;;2.50;;
55455;SDS011;63021;52.836;6.376;2022-10-16T07:13:53;5.53;;;2.58;;
55455;SDS011;63021;52.836;6.376;2022-10-16T07:16:19;3.75;;;2.13;;
55455;SDS011;63021;52.836;6.376;2022-10-16T07:18:45;2.55;;;1.88;;
55455;SDS011;63021;52.836;6.376;2022-10-16T07:21:14;3.75;;;2.20;;
55455;SDS011;63021;52.836;6.376;2022-10-16T07:23:45;2.92;;;2.08;;
55455;SDS011;63021;52.836;6.376;2022-10-16T07:26:15;5.22;;;2.22;;
55455;SDS011;63021;52.836;6.376;2022-10-16T07:28:40;5.47;;;1.88;;
55455;SDS011;63021;52.836;6.376;2022-10-16T07:31:09;7.10;;;2.22;;
55455;SDS011;63021;52.836;6.376;2022-10-16T07:33:37;3.92;;;1.90;;
55455;SDS011;63021;52.836;6.376;2022-10-16T07:36:04;2.42;;;1.92;;
55455;SDS011;63021;52.836;6.376;2022-10-16T07:38:29;4.72;;;1.77;;
55455;SDS011;63021;52.836;6.376;2022-10-16T07:40:55;5.35;;;1.98;;
55455;SDS011;63021;52.836;6.376;2022-10-16T07:43:25;3.08;;;1.50;;
55455;SDS011;63021;52.836;6.376;2022-10-16T07:45:51;3.58;;;2.13;;
55455;SDS011;63021;52.836;6.376;2022-10-16T07:48:18;4.38;;;1.42;;
55455;SDS011;63021;52.836;6.376;2022-10-16T07:50:44;4.53;;;1.70;;
55455;SDS011;63021;52.836;6.376;2022-10-16T07:53:10;3.13;;;1.58;;
55455;SDS011;63021;52.836;6.376;2022-10-16T07:55:36;3.55;;;1.10;;
55455;SDS011;63021;52.836;6.376;2022-10-16T07:58:01;2.83;;;1.30;;
55455;SDS011;63021;52.836;6.376;2022-10-16T08:00:27;5.68;;;1.50;;
55455;SDS011;63021;52.836;6.376;2022-10-16T08:02:52;2.20;;;1.30;;
55455;SDS011;63021;52.836;6.376;2022-10-16T08:05:17;4.13;;;1.48;;
55455;SDS011;63021;52.836;6.376;2022-10-16T08:07:43;2.50;;;0.93;;
55455;SDS011;63021;52.836;6.376;2022-10-16T08:10:17;4.65;;;1.08;;
55455;SDS011;63021;52.836;6.376;2022-10-16T08:12:44;5.82;;;2.45;;
55455;SDS011;63021;52.836;6.376;2022-10-16T08:15:09;4.50;;;1.50;;
55455;SDS011;63021;52.836;6.376;2022-10-16T08:17:35;2.40;;;1.35;;
55455;SDS011;63021;52.836;6.376;2022-10-16T08:20:00;2.13;;;1.40;;
55455;SDS011;63021;52.836;6.376;2022-10-16T08:22:26;2.60;;;1.42;;
55455;SDS011;63021;52.836;6.376;2022-10-16T08:24:52;3.03;;;1.38;;
55455;SDS011;63021;52.836;6.376;2022-10-16T08:27:17;4.65;;;1.75;;
55455;SDS011;63021;52.836;6.376;2022-10-16T08:29:42;3.90;;;1.42;;
55455;SDS011;63021;52.836;6.376;2022-10-16T08:32:08;1.98;;;1.10;;
55455;SDS011;63021;52.836;6.376;2022-10-16T08:34:33;4.10;;;1.50;;
55455;SDS011;63021;52.836;6.376;2022-10-16T08:36:58;4.10;;;1.38;;
55455;SDS011;63021;52.836;6.376;2022-10-16T08:39:24;5.18;;;1.80;;
55455;SDS011;63021;52.836;6.376;2022-10-16T08:47:29;6.20;;;3.00;;
55455;SDS011;63021;52.836;6.376;2022-10-16T08:50:13;5.65;;;2.10;;
55455;SDS011;63021;52.836;6.376;2022-10-16T08:52:43;2.95;;;1.90;;
55455;SDS011;63021;52.836;6.376;2022-10-16T08:55:17;7.18;;;2.20;;
55455;SDS011;63021;52.836;6.376;2022-10-16T08:58:14;10.40;;;2.78;;
55455;SDS011;63021;52.836;6.376;2022-10-16T09:00:41;7.38;;;2.40;;
55455;SDS011;63021;52.836;6.376;2022-10-16T09:13:34;7.63;;;2.83;;
55455;SDS011;63021;52.836;6.376;2022-10-16T09:16:25;4.55;;;1.83;;
55455;SDS011;63021;52.836;6.376;2022-10-16T09:19:20;7.57;;;1.77;;
55455;SDS011;63021;52.836;6.376;2022-10-16T09:24:20;4.60;;;2.10;;
55455;SDS011;63021;52.836;6.376;2022-10-16T09:26:49;6.93;;;2.13;;
55455;SDS011;63021;52.836;6.376;2022-10-16T09:29:18;5.75;;;1.92;;
55455;SDS011;63021;52.836;6.376;2022-10-16T09:31:46;10.85;;;2.50;;
55455;SDS011;63021;52.836;6.376;2022-10-16T09:34:17;4.95;;;1.98;;
55455;SDS011;63021;52.836;6.376;2022-10-16T09:36:51;6.20;;;1.77;;
55455;SDS011;63021;52.836;6.376;2022-10-16T09:39:16;5.20;;;2.22;;
55455;SDS011;63021;52.836;6.376;2022-10-16T09:41:43;9.57;;;3.08;;
55455;SDS011;63021;52.836;6.376;2022-10-16T09:44:18;6.88;;;2.03;;
55455;SDS011;63021;52.836;6.376;2022-10-16T09:47:02;10.10;;;2.08;;
55455;SDS011;63021;52.836;6.376;2022-10-16T09:49:37;7.55;;;2.15;;
55455;SDS011;63021;52.836;6.376;2022-10-16T09:52:12;7.28;;;1.95;;
55455;SDS011;63021;52.836;6.376;2022-10-16T09:54:55;10.77;;;2.25;;
55455;SDS011;63021;52.836;6.376;2022-10-16T09:57:23;13.75;;;2.53;;
55455;SDS011;63021;52.836;6.376;2022-10-16T09:59:50;10.38;;;3.15;;
55455;SDS011;63021;52.836;6.376;2022-10-16T10:02:18;11.15;;;1.75;;
55455;SDS011;63021;52.836;6.376;2022-10-16T10:05:04;5.95;;;1.60;;
55455;SDS011;63021;52.836;6.376;2022-10-16T10:07:42;7.53;;;2.15;;
55455;SDS011;63021;52.836;6.376;2022-10-16T10:10:30;8.00;;;2.03;;
55455;SDS011;63021;52.836;6.376;2022-10-16T10:12:57;15.10;;;2.60;;
55455;SDS011;63021;52.836;6.376;2022-10-16T10:15:23;7.68;;;1.92;;
55455;SDS011;63021;52.836;6.376;2022-10-16T10:17:55;9.25;;;2.25;;
55455;SDS011;63021;52.836;6.376;2022-10-16T10:20:26;13.23;;;2.53;;
55455;SDS011;63021;52.836;6.376;2022-10-16T10:22:54;8.30;;;2.88;;
55455;SDS011;63021;52.836;6.376;2022-10-16T10:25:32;12.23;;;3.20;;
55455;SDS011;63021;52.836;6.376;2022-10-16T10:30:37;12.25;;;3.45;;
55455;SDS011;63021;52.836;6.376;2022-10-16T10:36:37;12.45;;;2.83;;
55455;SDS011;63021;52.836;6.376;2022-10-16T10:39:08;9.45;;;2.50;;
55455;SDS011;63021;52.836;6.376;2022-10-16T10:49:55;13.02;;;2.70;;
55455;SDS011;63021;52.836;6.376;2022-10-16T10:53:27;11.85;;;2.65;;
55455;SDS011;63021;52.836;6.376;2022-10-16T11:01:15;5.10;;;1.25;;
55455;SDS011;63021;52.836;6.376;2022-10-16T11:14:46;7.30;;;2.20;;
55455;SDS011;63021;52.836;6.376;2022-10-16T11:17:19;10.55;;;2.30;;
55455;SDS011;63021;52.836;6.376;2022-10-16T11:19:58;5.97;;;1.80;;
55455;SDS011;63021;52.836;6.376;2022-10-16T11:22:32;20.13;;;3.05;;
55455;SDS011;63021;52.836;6.376;2022-10-16T11:25:18;7.40;;;1.92;;
55455;SDS011;63021;52.836;6.376;2022-10-16T11:38:07;7.53;;;2.20;;
55455;SDS011;63021;52.836;6.376;2022-10-16T11:40:40;7.05;;;2.20;;
55455;SDS011;63021;52.836;6.376;2022-10-16T11:43:13;16.55;;;2.90;;
55455;SDS011;63021;52.836;6.376;2022-10-16T11:45:43;11.93;;;3.22;;
55455;SDS011;63021;52.836;6.376;2022-10-16T11:57:08;11.32;;;3.38;;
55455;SDS011;63021;52.836;6.376;2022-10-16T11:59:46;13.27;;;2.80;;
55455;SDS011;63021;52.836;6.376;2022-10-16T12:08:12;10.63;;;2.20;;
55455;SDS011;63021;52.836;6.376;2022-10-16T12:10:40;13.60;;;1.90;;
55455;SDS011;63021;52.836;6.376;2022-10-16T12:16:04;6.50;;;2.25;;
55455;SDS011;63021;52.836;6.376;2022-10-16T12:18:29;8.05;;;1.65;;
55455;SDS011;63021;52.836;6.376;2022-10-16T12:20:55;12.07;;;2.40;;
55455;SDS011;63021;52.836;6.376;2022-10-16T12:23:23;16.33;;;2.22;;
55455;SDS011;63021;52.836;6.376;2022-10-16T12:25:54;14.05;;;4.05;;
55455;SDS011;63021;52.836;6.376;2022-10-16T12:28:22;13.45;;;2.58;;
55455;SDS011;63021;52.836;6.376;2022-10-16T12:30:53;12.15;;;1.98;;
55455;SDS011;63021;52.836;6.376;2022-10-16T12:33:22;8.10;;;1.50;;
55455;SDS011;63021;52.836;6.376;2022-10-16T12:35:52;8.77;;;2.17;;
55455;SDS011;63021;52.836;6.376;2022-10-16T12:38:26;12.20;;;1.75;;
55455;SDS011;63021;52.836;6.376;2022-10-16T12:40:58;7.57;;;1.67;;
55455;SDS011;63021;52.836;6.376;2022-10-16T12:43:45;9.52;;;2.72;;
55455;SDS011;63021;52.836;6.376;2022-10-16T12:48:41;11.27;;;2.00;;
55455;SDS011;63021;52.836;6.376;2022-10-16T12:51:10;10.50;;;2.17;;
55455;SDS011;63021;52.836;6.376;2022-10-16T12:53:37;8.98;;;1.77;;
55455;SDS011;63021;52.836;6.376;2022-10-16T12:59:33;9.13;;;1.92;;
55455;SDS011;63021;52.836;6.376;2022-10-16T13:07:56;12.02;;;2.55;;
55455;SDS011;63021;52.836;6.376;2022-10-16T13:10:40;8.15;;;1.73;;
55455;SDS011;63021;52.836;6.376;2022-10-16T13:19:18;12.00;;;1.90;;
55455;SDS011;63021;52.836;6.376;2022-10-16T13:27:59;12.07;;;3.78;;
55455;SDS011;63021;52.836;6.376;2022-10-16T13:30:25;9.85;;;1.95;;
55455;SDS011;63021;52.836;6.376;2022-10-16T13:35:52;10.07;;;1.98;;
55455;SDS011;63021;52.836;6.376;2022-10-16T13:38:20;12.35;;;3.65;;
55455;SDS011;63021;52.836;6.376;2022-10-16T13:40:48;10.48;;;2.88;;
55455;SDS011;63021;52.836;6.376;2022-10-16T13:45:53;15.68;;;2.22;;
55455;SDS011;63021;52.836;6.376;2022-10-16T13:48:23;7.90;;;1.85;;
55455;SDS011;63021;52.836;6.376;2022-10-16T13:51:01;10.40;;;2.13;;
55455;SDS011;63021;52.836;6.376;2022-10-16T13:53:39;10.43;;;2.03;;
55455;SDS011;63021;52.836;6.376;2022-10-16T13:56:06;12.50;;;3.20;;
55455;SDS011;63021;52.836;6.376;2022-10-16T13:58:35;9.55;;;2.80;;
55455;SDS011;63021;52.836;6.376;2022-10-16T14:01:02;5.75;;;1.40;;
55455;SDS011;63021;52.836;6.376;2022-10-16T14:03:32;16.38;;;2.00;;
55455;SDS011;63021;52.836;6.376;2022-10-16T14:06:01;7.43;;;1.70;;
55455;SDS011;63021;52.836;6.376;2022-10-16T14:08:30;12.73;;;2.53;;
55455;SDS011;63021;52.836;6.376;2022-10-16T14:10:57;11.10;;;2.03;;
55455;SDS011;63021;52.836;6.376;2022-10-16T14:13:39;10.48;;;2.45;;
55455;SDS011;63021;52.836;6.376;2022-10-16T14:16:11;12.55;;;1.95;;
55455;SDS011;63021;52.836;6.376;2022-10-16T14:18:44;11.95;;;3.05;;
55455;SDS011;63021;52.836;6.376;2022-10-16T14:21:12;10.90;;;2.17;;
55455;SDS011;63021;52.836;6.376;2022-10-16T14:23:41;9.43;;;2.17;;
55455;SDS011;63021;52.836;6.376;2022-10-16T14:28:36;11.73;;;2.58;;
55455;SDS011;63021;52.836;6.376;2022-10-16T14:31:13;24.85;;;2.70;;
55455;SDS011;63021;52.836;6.376;2022-10-16T14:33:44;10.05;;;2.40;;
55455;SDS011;63021;52.836;6.376;2022-10-16T14:38:38;12.35;;;3.25;;
55455;SDS011;63021;52.836;6.376;2022-10-16T14:41:06;6.72;;;2.00;;
55455;SDS011;63021;52.836;6.376;2022-10-16T14:43:41;10.32;;;1.67;;
55455;SDS011;63021;52.836;6.376;2022-10-16T14:46:15;12.15;;;2.72;;
55455;SDS011;63021;52.836;6.376;2022-10-16T14:48:43;11.65;;;2.20;;
55455;SDS011;63021;52.836;6.376;2022-10-16T14:51:19;15.27;;;2.63;;
55455;SDS011;63021;52.836;6.376;2022-10-16T14:53:45;7.95;;;2.20;;
55455;SDS011;63021;52.836;6.376;2022-10-16T14:56:30;7.97;;;2.95;;
55455;SDS011;63021;52.836;6.376;2022-10-16T15:01:52;12.15;;;2.30;;
55455;SDS011;63021;52.836;6.376;2022-10-16T15:04:18;11.93;;;2.97;;
55455;SDS011;63021;52.836;6.376;2022-10-16T15:06:43;9.32;;;2.42;;
55455;SDS011;63021;52.836;6.376;2022-10-16T15:09:09;10.32;;;2.50;;
55455;SDS011;63021;52.836;6.376;2022-10-16T15:11:34;10.82;;;2.45;;
55455;SDS011;63021;52.836;6.376;2022-10-16T15:14:00;12.77;;;3.15;;
55455;SDS011;63021;52.836;6.376;2022-10-16T15:16:26;13.57;;;3.00;;
55455;SDS011;63021;52.836;6.376;2022-10-16T15:18:51;12.52;;;3.15;;
55455;SDS011;63021;52.836;6.376;2022-10-16T15:21:25;8.75;;;3.10;;
55455;SDS011;63021;52.836;6.376;2022-10-16T15:23:53;9.30;;;2.85;;
55455;SDS011;63021;52.836;6.376;2022-10-16T15:26:19;18.55;;;3.00;;
55455;SDS011;63021;52.836;6.376;2022-10-16T15:28:44;12.40;;;2.85;;
55455;SDS011;63021;52.836;6.376;2022-10-16T15:31:10;13.63;;;2.90;;
55455;SDS011;63021;52.836;6.376;2022-10-16T15:33:35;11.65;;;3.20;;
55455;SDS011;63021;52.836;6.376;2022-10-16T15:36:01;12.32;;;3.10;;
55455;SDS011;63021;52.836;6.376;2022-10-16T15:38:28;9.73;;;3.00;;
55455;SDS011;63021;52.836;6.376;2022-10-16T15:40:54;8.30;;;2.03;;
55455;SDS011;63021;52.836;6.376;2022-10-16T15:43:20;15.07;;;2.75;;
55455;SDS011;63021;52.836;6.376;2022-10-16T15:45:52;9.77;;;3.42;;
55455;SDS011;63021;52.836;6.376;2022-10-16T15:48:31;14.35;;;3.80;;
55455;SDS011;63021;52.836;6.376;2022-10-16T15:50:57;18.67;;;4.22;;
55455;SDS011;63021;52.836;6.376;2022-10-16T15:53:23;15.65;;;4.82;;
55455;SDS011;63021;52.836;6.376;2022-10-16T15:55:48;11.02;;;4.15;;
55455;SDS011;63021;52.836;6.376;2022-10-16T15:58:14;10.23;;;3.47;;
55455;SDS011;63021;52.836;6.376;2022-10-16T16:00:39;9.68;;;2.85;;
55455;SDS011;63021;52.836;6.376;2022-10-16T16:03:05;7.30;;;2.55;;
55455;SDS011;63021;52.836;6.376;2022-10-16T16:05:30;11.75;;;3.65;;
55455;SDS011;63021;52.836;6.376;2022-10-16T16:07:56;16.15;;;4.47;;
55455;SDS011;63021;52.836;6.376;2022-10-16T16:10:21;12.45;;;3.80;;
55455;SDS011;63021;52.836;6.376;2022-10-16T16:12:47;11.50;;;2.72;;
55455;SDS011;63021;52.836;6.376;2022-10-16T16:15:17;19.40;;;3.97;;
55455;SDS011;63021;52.836;6.376;2022-10-16T16:17:46;14.25;;;4.55;;
55455;SDS011;63021;52.836;6.376;2022-10-16T16:20:12;9.13;;;3.78;;
55455;SDS011;63021;52.836;6.376;2022-10-16T16:22:37;9.90;;;3.50;;
55455;SDS011;63021;52.836;6.376;2022-10-16T16:25:03;12.40;;;4.85;;
55455;SDS011;63021;52.836;6.376;2022-10-16T16:27:28;15.00;;;5.72;;
55455;SDS011;63021;52.836;6.376;2022-10-16T16:29:55;11.88;;;5.07;;
55455;SDS011;63021;52.836;6.376;2022-10-16T16:32:20;14.10;;;6.35;;
55455;SDS011;63021;52.836;6.376;2022-10-16T16:34:46;9.80;;;5.78;;
55455;SDS011;63021;52.836;6.376;2022-10-16T16:37:11;12.93;;;4.75;;
55455;SDS011;63021;52.836;6.376;2022-10-16T16:39:37;13.18;;;4.45;;
55455;SDS011;63021;52.836;6.376;2022-10-16T16:42:02;10.60;;;5.05;;
55455;SDS011;63021;52.836;6.376;2022-10-16T16:44:29;11.63;;;5.18;;
55455;SDS011;63021;52.836;6.376;2022-10-16T16:46:54;9.65;;;4.60;;
55455;SDS011;63021;52.836;6.376;2022-10-16T16:49:20;10.05;;;4.03;;
55455;SDS011;63021;52.836;6.376;2022-10-16T16:51:46;9.88;;;4.50;;
55455;SDS011;63021;52.836;6.376;2022-10-16T16:54:11;6.97;;;3.03;;
55455;SDS011;63021;52.836;6.376;2022-10-16T16:56:37;8.13;;;3.38;;
55455;SDS011;63021;52.836;6.376;2022-10-16T16:59:03;9.35;;;2.90;;
55455;SDS011;63021;52.836;6.376;2022-10-16T17:01:29;13.43;;;3.63;;
55455;SDS011;63021;52.836;6.376;2022-10-16T17:03:57;4.88;;;2.60;;
55455;SDS011;63021;52.836;6.376;2022-10-16T17:06:25;6.65;;;3.03;;
55455;SDS011;63021;52.836;6.376;2022-10-16T17:08:54;6.60;;;2.63;;